Rocky Mount Wilson Regional Airport
KRWI : now visible

Airfield :











YOU CAN JOIN US ON...

 
LOGIN :

Register | Disclaimer

   EN    FR    IT 

 









Legend :    VFR   Marginal VFR   IFR   Intensive IFR   Very Intensive IFR
Visi :
Ceiling :
>= 8 km
>= 3000ft
5 to 8 km
1000 to 3000 ft
1500m to 5 km
500 to 1000 ft
800 to 1500m
200 to 500 ft
< 800m
< 200 ft
Symbols :   Thunderstorms  Fog  Heavy snow  Heavy precipitations  Wind > 20 kt







- Airport Elevation : 159 ft
- IATA code : RWI


KRWI - Rocky Mount Wilson Regional

CURRENT METAR :
  • 211200Z AUTO 09004KT 7SM BKN008 OVC013 13/12 A2981 RMK AO2 CIG 005V009 T01280122

EXPIRED METARs :
  • 211053Z AUTO VRB03KT 10SM OVC005 12/11 A2982 RMK AO2 RAE45 CIG 004V008 SLP099 P0002 T01170111
  • 210953Z AUTO 05006KT 9SM -RA BKN009 OVC013 11/11 A2985 RMK AO2 CIG 006V011 SLP108 P0009 T01110106
  • 210940Z AUTO 05007KT 10SM -RA SCT009 BKN012 OVC026 11/11 A2986 RMK AO2 P0009 T01110106

TAF KRWI
Valid from the 21 at 12:00 until the 22 at 12:00 UTC


211120Z 2112/2212 05006KT P6SM -RA BKN009 OVC013
FM211700 31007KT P6SM -RA BKN008 OVC015
FM211900 31008G19KT P6SM -RA OVC010
FM212100 30008G18KT P6SM BKN020
FM212300 29008G17KT P6SM VCSH BKN050
FM220400 28006KT P6SM SCT080
KZDC FIR / North America



MET'MAP, your aeronautical weather chart ! - Copyright ORBIFLY December 2007 - Disclaimer

ORBIFLY MET'MAP TEAM :

Programming & Development : Alexandra Zaïnal
Concept & Development : Baudouin d'Aumeries
Co-Development & Prog : Marc-Olivier Méhu
Technical & hardware support : Manuel Goepfert

Contact : metmap@orbifly.com




SOURCES & CREDITS :

   NOAA       Earth
Advisory